sensor_id;sensor_type;location;lat;lon;timestamp;P1;durP1;ratioP1;P2;durP2;ratioP2
8986;SDS011;4529;51.360;12.474;2023-05-20T00:03:10;5.57;;;4.97;;
8986;SDS011;4529;51.360;12.474;2023-05-20T00:08:14;5.53;;;4.93;;
8986;SDS011;4529;51.360;12.474;2023-05-20T00:13:18;6.27;;;4.87;;
8986;SDS011;4529;51.360;12.474;2023-05-20T00:18:22;5.87;;;5.00;;
8986;SDS011;4529;51.360;12.474;2023-05-20T00:23:26;5.23;;;4.73;;
8986;SDS011;4529;51.360;12.474;2023-05-20T00:28:30;5.83;;;5.20;;
8986;SDS011;4529;51.360;12.474;2023-05-20T00:33:35;5.47;;;4.90;;
8986;SDS011;4529;51.360;12.474;2023-05-20T00:38:39;4.77;;;4.37;;
8986;SDS011;4529;51.360;12.474;2023-05-20T00:43:43;5.53;;;5.00;;
8986;SDS011;4529;51.360;12.474;2023-05-20T00:48:47;6.40;;;5.13;;
8986;SDS011;4529;51.360;12.474;2023-05-20T00:53:51;6.20;;;5.43;;
8986;SDS011;4529;51.360;12.474;2023-05-20T00:58:54;5.97;;;5.33;;
8986;SDS011;4529;51.360;12.474;2023-05-20T01:03:58;5.40;;;4.90;;
8986;SDS011;4529;51.360;12.474;2023-05-20T01:09:02;5.63;;;5.10;;
8986;SDS011;4529;51.360;12.474;2023-05-20T01:14:06;7.30;;;5.40;;
8986;SDS011;4529;51.360;12.474;2023-05-20T01:19:16;6.60;;;5.40;;
8986;SDS011;4529;51.360;12.474;2023-05-20T01:24:12;6.07;;;5.47;;
8986;SDS011;4529;51.360;12.474;2023-05-20T01:29:16;6.17;;;5.30;;
8986;SDS011;4529;51.360;12.474;2023-05-20T01:34:19;6.53;;;5.53;;
8986;SDS011;4529;51.360;12.474;2023-05-20T01:39:23;6.20;;;5.47;;
8986;SDS011;4529;51.360;12.474;2023-05-20T01:44:27;6.20;;;5.60;;
8986;SDS011;4529;51.360;12.474;2023-05-20T01:49:30;7.03;;;5.67;;
8986;SDS011;4529;51.360;12.474;2023-05-20T01:54:33;7.57;;;5.67;;
8986;SDS011;4529;51.360;12.474;2023-05-20T01:59:37;7.83;;;5.90;;
8986;SDS011;4529;51.360;12.474;2023-05-20T02:04:41;7.17;;;6.10;;
8986;SDS011;4529;51.360;12.474;2023-05-20T02:09:47;8.13;;;6.50;;
8986;SDS011;4529;51.360;12.474;2023-05-20T02:14:51;7.23;;;6.27;;
8986;SDS011;4529;51.360;12.474;2023-05-20T02:19:55;9.10;;;7.47;;
8986;SDS011;4529;51.360;12.474;2023-05-20T02:24:59;9.97;;;7.77;;
8986;SDS011;4529;51.360;12.474;2023-05-20T02:30:04;8.93;;;7.47;;
8986;SDS011;4529;51.360;12.474;2023-05-20T02:35:07;9.13;;;7.97;;
8986;SDS011;4529;51.360;12.474;2023-05-20T02:40:11;11.37;;;8.73;;
8986;SDS011;4529;51.360;12.474;2023-05-20T02:45:14;12.10;;;8.40;;
8986;SDS011;4529;51.360;12.474;2023-05-20T02:50:18;9.73;;;8.23;;
8986;SDS011;4529;51.360;12.474;2023-05-20T02:55:21;11.13;;;8.77;;
8986;SDS011;4529;51.360;12.474;2023-05-20T03:00:25;11.37;;;8.80;;
8986;SDS011;4529;51.360;12.474;2023-05-20T03:05:29;10.37;;;8.63;;
8986;SDS011;4529;51.360;12.474;2023-05-20T03:10:36;10.70;;;8.70;;
8986;SDS011;4529;51.360;12.474;2023-05-20T03:15:40;13.03;;;8.80;;
8986;SDS011;4529;51.360;12.474;2023-05-20T03:20:44;11.43;;;9.30;;
8986;SDS011;4529;51.360;12.474;2023-05-20T03:25:47;12.17;;;9.33;;
8986;SDS011;4529;51.360;12.474;2023-05-20T03:30:50;14.60;;;9.23;;
8986;SDS011;4529;51.360;12.474;2023-05-20T03:35:53;10.73;;;9.20;;
8986;SDS011;4529;51.360;12.474;2023-05-20T03:40:57;13.40;;;9.43;;
8986;SDS011;4529;51.360;12.474;2023-05-20T03:46:00;13.27;;;9.23;;
8986;SDS011;4529;51.360;12.474;2023-05-20T03:51:04;10.40;;;8.50;;
8986;SDS011;4529;51.360;12.474;2023-05-20T03:56:08;10.33;;;8.13;;
8986;SDS011;4529;51.360;12.474;2023-05-20T04:01:11;10.67;;;8.37;;
8986;SDS011;4529;51.360;12.474;2023-05-20T04:06:16;9.67;;;8.37;;
8986;SDS011;4529;51.360;12.474;2023-05-20T04:11:20;12.63;;;8.10;;
8986;SDS011;4529;51.360;12.474;2023-05-20T04:16:24;11.77;;;8.23;;
8986;SDS011;4529;51.360;12.474;2023-05-20T04:21:28;10.13;;;8.40;;
8986;SDS011;4529;51.360;12.474;2023-05-20T04:26:32;10.10;;;8.63;;
8986;SDS011;4529;51.360;12.474;2023-05-20T04:31:36;10.93;;;8.40;;
8986;SDS011;4529;51.360;12.474;2023-05-20T04:36:39;9.50;;;7.07;;
8986;SDS011;4529;51.360;12.474;2023-05-20T04:41:42;10.10;;;6.87;;
8986;SDS011;4529;51.360;12.474;2023-05-20T04:46:46;12.43;;;8.80;;
8986;SDS011;4529;51.360;12.474;2023-05-20T04:51:50;11.90;;;9.00;;
8986;SDS011;4529;51.360;12.474;2023-05-20T04:56:53;12.40;;;9.23;;
8986;SDS011;4529;51.360;12.474;2023-05-20T05:01:56;9.47;;;6.90;;
8986;SDS011;4529;51.360;12.474;2023-05-20T05:07:00;9.43;;;7.00;;
8986;SDS011;4529;51.360;12.474;2023-05-20T05:12:04;10.10;;;7.43;;
8986;SDS011;4529;51.360;12.474;2023-05-20T05:17:07;10.33;;;8.53;;
8986;SDS011;4529;51.360;12.474;2023-05-20T05:22:10;13.43;;;9.20;;
8986;SDS011;4529;51.360;12.474;2023-05-20T05:27:14;11.77;;;9.00;;
8986;SDS011;4529;51.360;12.474;2023-05-20T05:32:17;12.47;;;8.63;;
8986;SDS011;4529;51.360;12.474;2023-05-20T05:37:21;12.00;;;9.30;;
8986;SDS011;4529;51.360;12.474;2023-05-20T05:42:24;12.13;;;9.13;;
8986;SDS011;4529;51.360;12.474;2023-05-20T05:47:28;12.50;;;9.57;;
8986;SDS011;4529;51.360;12.474;2023-05-20T05:52:33;12.23;;;9.03;;
8986;SDS011;4529;51.360;12.474;2023-05-20T05:57:37;11.13;;;8.90;;
8986;SDS011;4529;51.360;12.474;2023-05-20T06:02:41;12.13;;;9.03;;
8986;SDS011;4529;51.360;12.474;2023-05-20T06:07:45;14.33;;;9.47;;
8986;SDS011;4529;51.360;12.474;2023-05-20T06:12:49;13.73;;;9.20;;
8986;SDS011;4529;51.360;12.474;2023-05-20T06:17:52;13.80;;;9.63;;
8986;SDS011;4529;51.360;12.474;2023-05-20T06:22:56;13.87;;;9.07;;
8986;SDS011;4529;51.360;12.474;2023-05-20T06:27:59;12.10;;;9.50;;
8986;SDS011;4529;51.360;12.474;2023-05-20T06:33:04;14.97;;;10.07;;
8986;SDS011;4529;51.360;12.474;2023-05-20T06:38:08;13.33;;;9.00;;
8986;SDS011;4529;51.360;12.474;2023-05-20T06:43:12;12.87;;;9.80;;
8986;SDS011;4529;51.360;12.474;2023-05-20T06:48:16;11.87;;;9.50;;
8986;SDS011;4529;51.360;12.474;2023-05-20T06:53:20;14.70;;;9.67;;
8986;SDS011;4529;51.360;12.474;2023-05-20T06:58:24;13.30;;;10.33;;
8986;SDS011;4529;51.360;12.474;2023-05-20T07:03:27;13.57;;;10.10;;
8986;SDS011;4529;51.360;12.474;2023-05-20T07:08:30;14.33;;;10.27;;
8986;SDS011;4529;51.360;12.474;2023-05-20T07:13:34;13.70;;;10.33;;
8986;SDS011;4529;51.360;12.474;2023-05-20T07:18:37;14.73;;;10.60;;
8986;SDS011;4529;51.360;12.474;2023-05-20T07:23:41;15.03;;;10.53;;
8986;SDS011;4529;51.360;12.474;2023-05-20T07:28:44;14.17;;;10.77;;
8986;SDS011;4529;51.360;12.474;2023-05-20T07:33:48;15.37;;;11.73;;
8986;SDS011;4529;51.360;12.474;2023-05-20T07:38:51;15.67;;;11.47;;
8986;SDS011;4529;51.360;12.474;2023-05-20T07:43:55;15.57;;;11.20;;
8986;SDS011;4529;51.360;12.474;2023-05-20T07:49:00;16.37;;;11.73;;
8986;SDS011;4529;51.360;12.474;2023-05-20T07:54:04;15.50;;;11.63;;
8986;SDS011;4529;51.360;12.474;2023-05-20T07:59:08;16.70;;;11.63;;
8986;SDS011;4529;51.360;12.474;2023-05-20T08:04:12;16.60;;;11.57;;
8986;SDS011;4529;51.360;12.474;2023-05-20T08:09:15;13.13;;;10.20;;
8986;SDS011;4529;51.360;12.474;2023-05-20T08:14:19;15.37;;;11.53;;
8986;SDS011;4529;51.360;12.474;2023-05-20T08:19:22;14.33;;;11.10;;
8986;SDS011;4529;51.360;12.474;2023-05-20T08:24:26;13.97;;;9.57;;
8986;SDS011;4529;51.360;12.474;2023-05-20T08:29:29;15.53;;;10.00;;
8986;SDS011;4529;51.360;12.474;2023-05-20T08:34:33;14.83;;;9.93;;
8986;SDS011;4529;51.360;12.474;2023-05-20T08:39:38;16.93;;;10.53;;
8986;SDS011;4529;51.360;12.474;2023-05-20T08:44:43;15.73;;;12.47;;
8986;SDS011;4529;51.360;12.474;2023-05-20T08:49:47;17.00;;;12.77;;
8986;SDS011;4529;51.360;12.474;2023-05-20T08:54:53;21.37;;;12.40;;
8986;SDS011;4529;51.360;12.474;2023-05-20T08:59:56;16.67;;;12.53;;
8986;SDS011;4529;51.360;12.474;2023-05-20T09:05:00;17.27;;;12.57;;
8986;SDS011;4529;51.360;12.474;2023-05-20T09:10:03;17.63;;;13.40;;
8986;SDS011;4529;51.360;12.474;2023-05-20T09:15:07;18.97;;;13.50;;
8986;SDS011;4529;51.360;12.474;2023-05-20T09:20:11;20.90;;;13.73;;
8986;SDS011;4529;51.360;12.474;2023-05-20T09:25:17;19.00;;;13.27;;
8986;SDS011;4529;51.360;12.474;2023-05-20T09:30:18;17.63;;;13.87;;
8986;SDS011;4529;51.360;12.474;2023-05-20T09:35:21;20.03;;;14.57;;
8986;SDS011;4529;51.360;12.474;2023-05-20T09:40:28;19.53;;;15.10;;
8986;SDS011;4529;51.360;12.474;2023-05-20T09:45:29;17.43;;;13.83;;
8986;SDS011;4529;51.360;12.474;2023-05-20T09:50:34;17.20;;;13.77;;
8986;SDS011;4529;51.360;12.474;2023-05-20T09:55:38;18.07;;;13.60;;
8986;SDS011;4529;51.360;12.474;2023-05-20T10:00:41;18.27;;;13.53;;
8986;SDS011;4529;51.360;12.474;2023-05-20T10:05:50;16.37;;;13.20;;
8986;SDS011;4529;51.360;12.474;2023-05-20T10:21:58;38.93;;;23.37;;
8986;SDS011;4529;51.360;12.474;2023-05-20T10:27:08;31.43;;;22.70;;
8986;SDS011;4529;51.360;12.474;2023-05-20T10:32:22;14.70;;;12.77;;
8986;SDS011;4529;51.360;12.474;2023-05-20T10:37:32;16.03;;;12.47;;
8986;SDS011;4529;51.360;12.474;2023-05-20T10:42:32;13.80;;;11.67;;
8986;SDS011;4529;51.360;12.474;2023-05-20T10:47:40;14.97;;;12.00;;
8986;SDS011;4529;51.360;12.474;2023-05-20T10:52:46;15.00;;;12.30;;
8986;SDS011;4529;51.360;12.474;2023-05-20T10:57:50;17.40;;;12.10;;
8986;SDS011;4529;51.360;12.474;2023-05-20T11:02:54;16.77;;;11.03;;
8986;SDS011;4529;51.360;12.474;2023-05-20T11:08:03;14.10;;;11.93;;
8986;SDS011;4529;51.360;12.474;2023-05-20T11:13:06;13.87;;;12.00;;
8986;SDS011;4529;51.360;12.474;2023-05-20T11:18:10;12.80;;;10.77;;
8986;SDS011;4529;51.360;12.474;2023-05-20T11:23:14;16.53;;;12.03;;
8986;SDS011;4529;51.360;12.474;2023-05-20T11:28:18;14.33;;;11.77;;
8986;SDS011;4529;51.360;12.474;2023-05-20T11:33:20;15.60;;;11.77;;
8986;SDS011;4529;51.360;12.474;2023-05-20T11:38:24;17.00;;;13.00;;
8986;SDS011;4529;51.360;12.474;2023-05-20T11:43:27;18.07;;;11.90;;
8986;SDS011;4529;51.360;12.474;2023-05-20T11:48:31;14.53;;;11.73;;
8986;SDS011;4529;51.360;12.474;2023-05-20T11:53:35;14.13;;;12.10;;
8986;SDS011;4529;51.360;12.474;2023-05-20T11:58:39;14.83;;;11.47;;
8986;SDS011;4529;51.360;12.474;2023-05-20T12:03:43;14.57;;;11.93;;
8986;SDS011;4529;51.360;12.474;2023-05-20T12:08:46;16.33;;;12.23;;
8986;SDS011;4529;51.360;12.474;2023-05-20T12:13:50;13.27;;;11.10;;
8986;SDS011;4529;51.360;12.474;2023-05-20T12:18:53;12.53;;;10.97;;
8986;SDS011;4529;51.360;12.474;2023-05-20T12:24:00;14.40;;;11.20;;
8986;SDS011;4529;51.360;12.474;2023-05-20T12:29:00;17.37;;;11.00;;
8986;SDS011;4529;51.360;12.474;2023-05-20T12:34:05;14.00;;;10.07;;
8986;SDS011;4529;51.360;12.474;2023-05-20T12:39:09;16.27;;;11.17;;
8986;SDS011;4529;51.360;12.474;2023-05-20T12:44:13;16.13;;;11.43;;
8986;SDS011;4529;51.360;12.474;2023-05-20T12:49:17;13.50;;;10.47;;
8986;SDS011;4529;51.360;12.474;2023-05-20T12:54:21;16.17;;;10.90;;
8986;SDS011;4529;51.360;12.474;2023-05-20T12:59:24;17.63;;;11.40;;
8986;SDS011;4529;51.360;12.474;2023-05-20T13:04:28;16.87;;;11.67;;
8986;SDS011;4529;51.360;12.474;2023-05-20T13:09:31;14.80;;;11.37;;
8986;SDS011;4529;51.360;12.474;2023-05-20T13:14:35;17.20;;;11.73;;
8986;SDS011;4529;51.360;12.474;2023-05-20T13:19:38;16.10;;;11.23;;
8986;SDS011;4529;51.360;12.474;2023-05-20T13:24:42;14.57;;;11.00;;
8986;SDS011;4529;51.360;12.474;2023-05-20T13:29:45;13.10;;;10.63;;
8986;SDS011;4529;51.360;12.474;2023-05-20T13:34:50;15.83;;;10.87;;
8986;SDS011;4529;51.360;12.474;2023-05-20T13:39:55;14.10;;;10.47;;
8986;SDS011;4529;51.360;12.474;2023-05-20T13:44:59;12.20;;;9.90;;
8986;SDS011;4529;51.360;12.474;2023-05-20T13:50:03;16.37;;;11.10;;
8986;SDS011;4529;51.360;12.474;2023-05-20T13:55:07;15.63;;;11.13;;
8986;SDS011;4529;51.360;12.474;2023-05-20T14:00:10;13.53;;;9.90;;
8986;SDS011;4529;51.360;12.474;2023-05-20T14:05:14;13.97;;;10.50;;
8986;SDS011;4529;51.360;12.474;2023-05-20T14:10:17;12.83;;;10.23;;
8986;SDS011;4529;51.360;12.474;2023-05-20T14:15:21;12.67;;;9.80;;
8986;SDS011;4529;51.360;12.474;2023-05-20T14:20:24;12.30;;;9.60;;
8986;SDS011;4529;51.360;12.474;2023-05-20T14:25:28;12.77;;;9.30;;
8986;SDS011;4529;51.360;12.474;2023-05-20T14:30:32;12.33;;;9.60;;
8986;SDS011;4529;51.360;12.474;2023-05-20T14:35:36;12.13;;;9.80;;
8986;SDS011;4529;51.360;12.474;2023-05-20T14:40:40;11.07;;;9.23;;
8986;SDS011;4529;51.360;12.474;2023-05-20T14:45:44;12.57;;;9.40;;
8986;SDS011;4529;51.360;12.474;2023-05-20T14:50:48;10.00;;;8.40;;
8986;SDS011;4529;51.360;12.474;2023-05-20T14:55:52;12.37;;;9.13;;
8986;SDS011;4529;51.360;12.474;2023-05-20T15:00:57;11.03;;;8.93;;
8986;SDS011;4529;51.360;12.474;2023-05-20T15:06:00;12.57;;;8.93;;
8986;SDS011;4529;51.360;12.474;2023-05-20T15:11:04;9.87;;;8.73;;
8986;SDS011;4529;51.360;12.474;2023-05-20T15:16:07;10.73;;;8.30;;
8986;SDS011;4529;51.360;12.474;2023-05-20T15:21:10;10.93;;;8.57;;
8986;SDS011;4529;51.360;12.474;2023-05-20T15:26:14;11.23;;;8.70;;
8986;SDS011;4529;51.360;12.474;2023-05-20T15:31:18;9.10;;;8.17;;
8986;SDS011;4529;51.360;12.474;2023-05-20T15:36:21;12.83;;;8.30;;
8986;SDS011;4529;51.360;12.474;2023-05-20T15:41:24;10.10;;;8.47;;
8986;SDS011;4529;51.360;12.474;2023-05-20T15:46:28;11.50;;;8.53;;
8986;SDS011;4529;51.360;12.474;2023-05-20T15:51:31;11.33;;;9.07;;
8986;SDS011;4529;51.360;12.474;2023-05-20T15:56:35;13.10;;;9.13;;
8986;SDS011;4529;51.360;12.474;2023-05-20T16:01:39;11.67;;;9.23;;
8986;SDS011;4529;51.360;12.474;2023-05-20T16:06:43;12.23;;;9.80;;
8986;SDS011;4529;51.360;12.474;2023-05-20T16:11:47;12.23;;;8.90;;
8986;SDS011;4529;51.360;12.474;2023-05-20T16:16:51;11.87;;;8.87;;
8986;SDS011;4529;51.360;12.474;2023-05-20T16:21:56;12.90;;;8.90;;
8986;SDS011;4529;51.360;12.474;2023-05-20T16:27:00;11.73;;;10.27;;
8986;SDS011;4529;51.360;12.474;2023-05-20T16:32:03;10.60;;;8.37;;
8986;SDS011;4529;51.360;12.474;2023-05-20T16:37:07;18.97;;;10.03;;
8986;SDS011;4529;51.360;12.474;2023-05-20T16:42:11;12.23;;;10.07;;
8986;SDS011;4529;51.360;12.474;2023-05-20T16:47:15;11.57;;;10.37;;
8986;SDS011;4529;51.360;12.474;2023-05-20T16:52:18;12.80;;;9.50;;
8986;SDS011;4529;51.360;12.474;2023-05-20T16:57:22;12.50;;;9.77;;
8986;SDS011;4529;51.360;12.474;2023-05-20T17:02:25;10.90;;;9.10;;
8986;SDS011;4529;51.360;12.474;2023-05-20T17:07:29;12.17;;;9.53;;
8986;SDS011;4529;51.360;12.474;2023-05-20T17:12:32;13.70;;;9.63;;
8986;SDS011;4529;51.360;12.474;2023-05-20T17:17:36;11.57;;;8.73;;
8986;SDS011;4529;51.360;12.474;2023-05-20T17:22:40;13.73;;;9.63;;
8986;SDS011;4529;51.360;12.474;2023-05-20T17:27:44;12.63;;;9.90;;
8986;SDS011;4529;51.360;12.474;2023-05-20T17:32:48;15.40;;;10.50;;
8986;SDS011;4529;51.360;12.474;2023-05-20T17:37:52;14.40;;;10.27;;
8986;SDS011;4529;51.360;12.474;2023-05-20T17:42:56;15.27;;;11.03;;
8986;SDS011;4529;51.360;12.474;2023-05-20T17:48:00;13.93;;;11.27;;
8986;SDS011;4529;51.360;12.474;2023-05-20T17:53:04;16.93;;;11.17;;
8986;SDS011;4529;51.360;12.474;2023-05-20T17:58:07;14.00;;;10.90;;
8986;SDS011;4529;51.360;12.474;2023-05-20T18:03:10;14.13;;;11.27;;
8986;SDS011;4529;51.360;12.474;2023-05-20T18:08:14;17.37;;;12.33;;
8986;SDS011;4529;51.360;12.474;2023-05-20T18:13:18;16.30;;;12.03;;
8986;SDS011;4529;51.360;12.474;2023-05-20T18:18:22;15.57;;;12.47;;
8986;SDS011;4529;51.360;12.474;2023-05-20T18:23:26;15.57;;;13.07;;
8986;SDS011;4529;51.360;12.474;2023-05-20T18:28:31;16.07;;;13.17;;
8986;SDS011;4529;51.360;12.474;2023-05-20T18:33:34;17.60;;;13.93;;
8986;SDS011;4529;51.360;12.474;2023-05-20T18:38:37;17.00;;;13.37;;
8986;SDS011;4529;51.360;12.474;2023-05-20T18:43:41;18.17;;;13.27;;
8986;SDS011;4529;51.360;12.474;2023-05-20T18:48:44;16.43;;;13.27;;
8986;SDS011;4529;51.360;12.474;2023-05-20T18:53:48;17.67;;;12.83;;
8986;SDS011;4529;51.360;12.474;2023-05-20T18:58:51;18.07;;;13.07;;
8986;SDS011;4529;51.360;12.474;2023-05-20T19:03:55;16.67;;;13.30;;
8986;SDS011;4529;51.360;12.474;2023-05-20T19:09:02;20.77;;;13.47;;
8986;SDS011;4529;51.360;12.474;2023-05-20T19:14:05;17.93;;;13.17;;
8986;SDS011;4529;51.360;12.474;2023-05-20T19:19:09;16.40;;;12.47;;
8986;SDS011;4529;51.360;12.474;2023-05-20T19:24:12;16.43;;;12.60;;
8986;SDS011;4529;51.360;12.474;2023-05-20T19:29:16;14.60;;;12.80;;
8986;SDS011;4529;51.360;12.474;2023-05-20T19:34:19;18.03;;;13.83;;
8986;SDS011;4529;51.360;12.474;2023-05-20T19:39:23;14.73;;;13.13;;
8986;SDS011;4529;51.360;12.474;2023-05-20T19:44:27;16.73;;;13.13;;
8986;SDS011;4529;51.360;12.474;2023-05-20T19:49:32;16.37;;;13.30;;
8986;SDS011;4529;51.360;12.474;2023-05-20T19:54:36;16.73;;;13.50;;
8986;SDS011;4529;51.360;12.474;2023-05-20T19:59:40;17.13;;;13.33;;
8986;SDS011;4529;51.360;12.474;2023-05-20T20:04:44;18.87;;;13.10;;
8986;SDS011;4529;51.360;12.474;2023-05-20T20:09:48;17.57;;;13.87;;
8986;SDS011;4529;51.360;12.474;2023-05-20T20:14:51;17.30;;;14.47;;
8986;SDS011;4529;51.360;12.474;2023-05-20T20:19:55;17.87;;;14.40;;
8986;SDS011;4529;51.360;12.474;2023-05-20T20:24:58;19.50;;;14.53;;
8986;SDS011;4529;51.360;12.474;2023-05-20T20:30:04;16.17;;;14.13;;
8986;SDS011;4529;51.360;12.474;2023-05-20T20:35:08;19.27;;;13.97;;
8986;SDS011;4529;51.360;12.474;2023-05-20T20:40:12;21.10;;;14.63;;
8986;SDS011;4529;51.360;12.474;2023-05-20T20:45:16;17.70;;;14.63;;
8986;SDS011;4529;51.360;12.474;2023-05-20T20:50:20;19.70;;;15.00;;
8986;SDS011;4529;51.360;12.474;2023-05-20T20:55:24;19.43;;;15.57;;
8986;SDS011;4529;51.360;12.474;2023-05-20T21:00:28;19.47;;;15.23;;
8986;SDS011;4529;51.360;12.474;2023-05-20T21:05:32;19.13;;;14.80;;
8986;SDS011;4529;51.360;12.474;2023-05-20T21:10:38;20.63;;;15.73;;
8986;SDS011;4529;51.360;12.474;2023-05-20T21:15:42;19.93;;;15.67;;
8986;SDS011;4529;51.360;12.474;2023-05-20T21:20:46;18.60;;;15.37;;
8986;SDS011;4529;51.360;12.474;2023-05-20T21:25:55;22.63;;;15.87;;
8986;SDS011;4529;51.360;12.474;2023-05-20T21:30:59;19.60;;;15.63;;
8986;SDS011;4529;51.360;12.474;2023-05-20T21:36:03;21.70;;;15.67;;
8986;SDS011;4529;51.360;12.474;2023-05-20T21:41:07;19.20;;;15.43;;
8986;SDS011;4529;51.360;12.474;2023-05-20T21:46:11;21.07;;;16.30;;
8986;SDS011;4529;51.360;12.474;2023-05-20T21:51:14;22.17;;;15.83;;
8986;SDS011;4529;51.360;12.474;2023-05-20T21:56:19;22.43;;;15.73;;
8986;SDS011;4529;51.360;12.474;2023-05-20T22:01:23;19.93;;;15.97;;
8986;SDS011;4529;51.360;12.474;2023-05-20T22:06:27;20.57;;;15.43;;
8986;SDS011;4529;51.360;12.474;2023-05-20T22:11:31;18.87;;;14.47;;
8986;SDS011;4529;51.360;12.474;2023-05-20T22:16:35;19.27;;;14.20;;
8986;SDS011;4529;51.360;12.474;2023-05-20T22:21:39;19.90;;;14.03;;
8986;SDS011;4529;51.360;12.474;2023-05-20T22:26:43;18.50;;;14.27;;
8986;SDS011;4529;51.360;12.474;2023-05-20T22:31:47;17.50;;;14.17;;
8986;SDS011;4529;51.360;12.474;2023-05-20T22:36:51;17.37;;;13.77;;
8986;SDS011;4529;51.360;12.474;2023-05-20T22:41:55;17.90;;;13.70;;
8986;SDS011;4529;51.360;12.474;2023-05-20T22:46:58;20.43;;;14.47;;
8986;SDS011;4529;51.360;12.474;2023-05-20T22:52:02;17.73;;;14.40;;
8986;SDS011;4529;51.360;12.474;2023-05-20T22:57:05;18.53;;;14.47;;
8986;SDS011;4529;51.360;12.474;2023-05-20T23:02:08;18.70;;;13.70;;
8986;SDS011;4529;51.360;12.474;2023-05-20T23:07:12;18.83;;;13.63;;
8986;SDS011;4529;51.360;12.474;2023-05-20T23:12:15;19.10;;;13.90;;
8986;SDS011;4529;51.360;12.474;2023-05-20T23:17:19;22.37;;;14.53;;
8986;SDS011;4529;51.360;12.474;2023-05-20T23:22:24;18.40;;;13.77;;
8986;SDS011;4529;51.360;12.474;2023-05-20T23:27:28;19.53;;;13.67;;
8986;SDS011;4529;51.360;12.474;2023-05-20T23:32:32;17.10;;;14.10;;
8986;SDS011;4529;51.360;12.474;2023-05-20T23:37:36;19.73;;;14.03;;
8986;SDS011;4529;51.360;12.474;2023-05-20T23:42:39;17.87;;;13.97;;
8986;SDS011;4529;51.360;12.474;2023-05-20T23:47:42;19.60;;;13.47;;
8986;SDS011;4529;51.360;12.474;2023-05-20T23:52:46;21.50;;;15.30;;
8986;SDS011;4529;51.360;12.474;2023-05-20T23:57:49;20.53;;;14.50;;
